sensor_id;sensor_type;location;lat;lon;timestamp;P1;durP1;ratioP1;P2;durP2;ratioP2
27265;SDS011;14766;51.380;13.762;2024-01-07T00:01:46;25.67;;;14.75;;
27265;SDS011;14766;51.380;13.762;2024-01-07T00:04:15;25.60;;;13.95;;
27265;SDS011;14766;51.380;13.762;2024-01-07T00:06:43;28.92;;;15.00;;
27265;SDS011;14766;51.380;13.762;2024-01-07T00:09:11;25.23;;;14.52;;
27265;SDS011;14766;51.380;13.762;2024-01-07T00:11:41;24.73;;;13.43;;
27265;SDS011;14766;51.380;13.762;2024-01-07T00:14:08;25.92;;;14.25;;
27265;SDS011;14766;51.380;13.762;2024-01-07T00:16:35;21.25;;;12.88;;
27265;SDS011;14766;51.380;13.762;2024-01-07T00:19:02;22.13;;;11.88;;
27265;SDS011;14766;51.380;13.762;2024-01-07T00:21:30;23.33;;;12.82;;
27265;SDS011;14766;51.380;13.762;2024-01-07T00:23:57;24.13;;;12.95;;
27265;SDS011;14766;51.380;13.762;2024-01-07T00:26:25;25.63;;;14.05;;
27265;SDS011;14766;51.380;13.762;2024-01-07T00:28:54;23.42;;;12.95;;
27265;SDS011;14766;51.380;13.762;2024-01-07T00:31:21;26.40;;;13.82;;
27265;SDS011;14766;51.380;13.762;2024-01-07T00:33:48;24.73;;;14.25;;
27265;SDS011;14766;51.380;13.762;2024-01-07T00:36:15;24.50;;;13.00;;
27265;SDS011;14766;51.380;13.762;2024-01-07T00:38:43;23.23;;;13.40;;
27265;SDS011;14766;51.380;13.762;2024-01-07T00:41:11;24.10;;;14.13;;
27265;SDS011;14766;51.380;13.762;2024-01-07T00:43:39;22.95;;;12.35;;
27265;SDS011;14766;51.380;13.762;2024-01-07T00:46:07;19.95;;;11.55;;
27265;SDS011;14766;51.380;13.762;2024-01-07T00:48:34;25.20;;;13.35;;
27265;SDS011;14766;51.380;13.762;2024-01-07T00:51:01;19.35;;;11.55;;
27265;SDS011;14766;51.380;13.762;2024-01-07T00:53:33;20.90;;;12.15;;
27265;SDS011;14766;51.380;13.762;2024-01-07T00:56:00;25.13;;;12.90;;
27265;SDS011;14766;51.380;13.762;2024-01-07T00:58:27;26.05;;;14.48;;
27265;SDS011;14766;51.380;13.762;2024-01-07T01:00:54;24.77;;;13.13;;
27265;SDS011;14766;51.380;13.762;2024-01-07T01:03:22;21.63;;;11.52;;
27265;SDS011;14766;51.380;13.762;2024-01-07T01:05:49;27.23;;;14.15;;
27265;SDS011;14766;51.380;13.762;2024-01-07T01:08:16;24.60;;;13.25;;
27265;SDS011;14766;51.380;13.762;2024-01-07T01:10:44;23.05;;;12.27;;
27265;SDS011;14766;51.380;13.762;2024-01-07T01:13:11;21.63;;;12.57;;
27265;SDS011;14766;51.380;13.762;2024-01-07T01:15:38;26.38;;;12.52;;
27265;SDS011;14766;51.380;13.762;2024-01-07T01:18:06;23.08;;;11.70;;
27265;SDS011;14766;51.380;13.762;2024-01-07T01:20:33;19.75;;;10.95;;
27265;SDS011;14766;51.380;13.762;2024-01-07T01:23:00;22.92;;;12.48;;
27265;SDS011;14766;51.380;13.762;2024-01-07T01:25:29;20.38;;;10.95;;
27265;SDS011;14766;51.380;13.762;2024-01-07T01:27:56;21.65;;;12.20;;
27265;SDS011;14766;51.380;13.762;2024-01-07T01:30:23;20.70;;;11.82;;
27265;SDS011;14766;51.380;13.762;2024-01-07T01:32:50;21.80;;;12.02;;
27265;SDS011;14766;51.380;13.762;2024-01-07T01:35:18;19.42;;;11.10;;
27265;SDS011;14766;51.380;13.762;2024-01-07T01:37:45;22.42;;;10.85;;
27265;SDS011;14766;51.380;13.762;2024-01-07T01:40:16;18.42;;;10.40;;
27265;SDS011;14766;51.380;13.762;2024-01-07T01:42:43;18.23;;;10.35;;
27265;SDS011;14766;51.380;13.762;2024-01-07T01:45:10;19.98;;;9.90;;
27265;SDS011;14766;51.380;13.762;2024-01-07T01:47:38;20.92;;;10.48;;
27265;SDS011;14766;51.380;13.762;2024-01-07T01:50:07;20.52;;;10.13;;
27265;SDS011;14766;51.380;13.762;2024-01-07T01:52:34;22.63;;;10.30;;
27265;SDS011;14766;51.380;13.762;2024-01-07T01:55:03;18.50;;;9.63;;
27265;SDS011;14766;51.380;13.762;2024-01-07T01:57:33;18.77;;;10.32;;
27265;SDS011;14766;51.380;13.762;2024-01-07T02:00:04;16.23;;;9.45;;
27265;SDS011;14766;51.380;13.762;2024-01-07T02:02:32;18.35;;;9.70;;
27265;SDS011;14766;51.380;13.762;2024-01-07T02:05:03;18.33;;;9.60;;
27265;SDS011;14766;51.380;13.762;2024-01-07T02:07:31;17.02;;;9.10;;
27265;SDS011;14766;51.380;13.762;2024-01-07T02:09:58;15.55;;;9.05;;
27265;SDS011;14766;51.380;13.762;2024-01-07T02:12:27;17.00;;;9.10;;
27265;SDS011;14766;51.380;13.762;2024-01-07T02:14:54;17.80;;;8.90;;
27265;SDS011;14766;51.380;13.762;2024-01-07T02:17:21;16.40;;;9.48;;
27265;SDS011;14766;51.380;13.762;2024-01-07T02:19:51;14.55;;;8.65;;
27265;SDS011;14766;51.380;13.762;2024-01-07T02:22:18;16.20;;;8.20;;
27265;SDS011;14766;51.380;13.762;2024-01-07T02:24:45;16.92;;;8.13;;
27265;SDS011;14766;51.380;13.762;2024-01-07T02:27:13;12.68;;;7.13;;
27265;SDS011;14766;51.380;13.762;2024-01-07T02:29:41;13.85;;;7.68;;
27265;SDS011;14766;51.380;13.762;2024-01-07T02:32:08;14.80;;;7.70;;
27265;SDS011;14766;51.380;13.762;2024-01-07T02:34:36;13.65;;;7.20;;
27265;SDS011;14766;51.380;13.762;2024-01-07T02:37:03;14.82;;;7.40;;
27265;SDS011;14766;51.380;13.762;2024-01-07T02:39:30;12.32;;;7.28;;
27265;SDS011;14766;51.380;13.762;2024-01-07T02:41:57;13.73;;;7.68;;
27265;SDS011;14766;51.380;13.762;2024-01-07T02:44:25;15.52;;;8.00;;
27265;SDS011;14766;51.380;13.762;2024-01-07T02:46:52;10.93;;;6.82;;
27265;SDS011;14766;51.380;13.762;2024-01-07T02:49:19;14.35;;;7.15;;
27265;SDS011;14766;51.380;13.762;2024-01-07T02:51:46;15.25;;;8.25;;
27265;SDS011;14766;51.380;13.762;2024-01-07T02:54:16;12.20;;;7.18;;
27265;SDS011;14766;51.380;13.762;2024-01-07T02:56:43;15.27;;;7.30;;
27265;SDS011;14766;51.380;13.762;2024-01-07T02:59:10;14.35;;;6.88;;
27265;SDS011;14766;51.380;13.762;2024-01-07T03:01:37;16.00;;;7.47;;
27265;SDS011;14766;51.380;13.762;2024-01-07T03:04:07;14.80;;;6.78;;
27265;SDS011;14766;51.380;13.762;2024-01-07T03:06:39;15.48;;;7.40;;
27265;SDS011;14766;51.380;13.762;2024-01-07T03:09:09;15.38;;;7.20;;
27265;SDS011;14766;51.380;13.762;2024-01-07T03:11:40;14.10;;;6.85;;
27265;SDS011;14766;51.380;13.762;2024-01-07T03:14:08;14.65;;;7.32;;
27265;SDS011;14766;51.380;13.762;2024-01-07T03:16:36;12.38;;;6.72;;
27265;SDS011;14766;51.380;13.762;2024-01-07T03:19:03;12.00;;;6.20;;
27265;SDS011;14766;51.380;13.762;2024-01-07T03:21:31;11.35;;;6.55;;
27265;SDS011;14766;51.380;13.762;2024-01-07T03:23:59;12.95;;;7.43;;
27265;SDS011;14766;51.380;13.762;2024-01-07T03:26:28;13.15;;;7.10;;
27265;SDS011;14766;51.380;13.762;2024-01-07T03:28:57;12.27;;;6.22;;
27265;SDS011;14766;51.380;13.762;2024-01-07T03:31:26;14.55;;;7.10;;
27265;SDS011;14766;51.380;13.762;2024-01-07T03:33:53;12.90;;;6.10;;
27265;SDS011;14766;51.380;13.762;2024-01-07T03:36:21;13.35;;;7.05;;
27265;SDS011;14766;51.380;13.762;2024-01-07T03:38:49;14.82;;;6.65;;
27265;SDS011;14766;51.380;13.762;2024-01-07T03:41:17;11.25;;;6.30;;
27265;SDS011;14766;51.380;13.762;2024-01-07T03:44:09;14.52;;;7.15;;
27265;SDS011;14766;51.380;13.762;2024-01-07T03:46:37;12.15;;;6.50;;
27265;SDS011;14766;51.380;13.762;2024-01-07T03:49:04;11.90;;;6.40;;
27265;SDS011;14766;51.380;13.762;2024-01-07T03:51:32;9.63;;;5.57;;
27265;SDS011;14766;51.380;13.762;2024-01-07T03:53:59;12.63;;;6.38;;
27265;SDS011;14766;51.380;13.762;2024-01-07T03:56:26;9.32;;;5.78;;
27265;SDS011;14766;51.380;13.762;2024-01-07T03:58:53;14.52;;;6.82;;
27265;SDS011;14766;51.380;13.762;2024-01-07T04:01:21;12.65;;;6.00;;
27265;SDS011;14766;51.380;13.762;2024-01-07T04:03:48;13.63;;;6.28;;
27265;SDS011;14766;51.380;13.762;2024-01-07T04:06:15;14.60;;;6.25;;
27265;SDS011;14766;51.380;13.762;2024-01-07T04:08:43;13.20;;;6.32;;
27265;SDS011;14766;51.380;13.762;2024-01-07T04:11:11;9.77;;;6.18;;
27265;SDS011;14766;51.380;13.762;2024-01-07T04:13:38;10.68;;;5.63;;
27265;SDS011;14766;51.380;13.762;2024-01-07T04:16:05;11.00;;;6.07;;
27265;SDS011;14766;51.380;13.762;2024-01-07T04:18:32;12.77;;;6.30;;
27265;SDS011;14766;51.380;13.762;2024-01-07T04:20:59;11.40;;;5.63;;
27265;SDS011;14766;51.380;13.762;2024-01-07T04:23:26;12.27;;;4.95;;
27265;SDS011;14766;51.380;13.762;2024-01-07T04:25:53;9.68;;;5.38;;
27265;SDS011;14766;51.380;13.762;2024-01-07T04:28:21;10.57;;;5.47;;
27265;SDS011;14766;51.380;13.762;2024-01-07T04:30:48;10.60;;;5.88;;
27265;SDS011;14766;51.380;13.762;2024-01-07T04:33:15;11.35;;;5.95;;
27265;SDS011;14766;51.380;13.762;2024-01-07T04:35:43;9.93;;;5.38;;
27265;SDS011;14766;51.380;13.762;2024-01-07T04:38:10;11.23;;;5.75;;
27265;SDS011;14766;51.380;13.762;2024-01-07T04:40:38;10.80;;;5.72;;
27265;SDS011;14766;51.380;13.762;2024-01-07T04:43:05;10.73;;;5.22;;
27265;SDS011;14766;51.380;13.762;2024-01-07T04:45:32;12.68;;;5.75;;
27265;SDS011;14766;51.380;13.762;2024-01-07T04:47:59;10.23;;;5.50;;
27265;SDS011;14766;51.380;13.762;2024-01-07T04:50:27;10.88;;;6.03;;
27265;SDS011;14766;51.380;13.762;2024-01-07T04:52:54;13.02;;;5.50;;
27265;SDS011;14766;51.380;13.762;2024-01-07T04:55:21;8.00;;;5.10;;
27265;SDS011;14766;51.380;13.762;2024-01-07T04:57:48;9.43;;;4.75;;
27265;SDS011;14766;51.380;13.762;2024-01-07T05:00:15;7.32;;;4.57;;
27265;SDS011;14766;51.380;13.762;2024-01-07T05:02:42;9.43;;;4.80;;
27265;SDS011;14766;51.380;13.762;2024-01-07T05:05:09;6.97;;;4.28;;
27265;SDS011;14766;51.380;13.762;2024-01-07T05:07:37;8.38;;;4.47;;
27265;SDS011;14766;51.380;13.762;2024-01-07T05:10:05;8.23;;;4.70;;
27265;SDS011;14766;51.380;13.762;2024-01-07T05:12:32;8.32;;;4.55;;
27265;SDS011;14766;51.380;13.762;2024-01-07T05:14:59;9.50;;;4.60;;
27265;SDS011;14766;51.380;13.762;2024-01-07T05:17:26;9.52;;;4.72;;
27265;SDS011;14766;51.380;13.762;2024-01-07T05:19:56;7.32;;;4.63;;
27265;SDS011;14766;51.380;13.762;2024-01-07T05:22:23;9.00;;;4.80;;
27265;SDS011;14766;51.380;13.762;2024-01-07T05:24:50;8.48;;;4.95;;
27265;SDS011;14766;51.380;13.762;2024-01-07T05:27:17;8.40;;;4.55;;
27265;SDS011;14766;51.380;13.762;2024-01-07T05:29:44;7.88;;;4.50;;
27265;SDS011;14766;51.380;13.762;2024-01-07T05:32:15;9.45;;;4.78;;
27265;SDS011;14766;51.380;13.762;2024-01-07T05:34:43;9.60;;;4.78;;
27265;SDS011;14766;51.380;13.762;2024-01-07T05:37:10;8.57;;;4.78;;
27265;SDS011;14766;51.380;13.762;2024-01-07T05:39:37;10.40;;;4.45;;
27265;SDS011;14766;51.380;13.762;2024-01-07T05:42:04;6.22;;;3.83;;
27265;SDS011;14766;51.380;13.762;2024-01-07T05:44:31;6.97;;;3.90;;
27265;SDS011;14766;51.380;13.762;2024-01-07T05:46:59;10.20;;;4.45;;
27265;SDS011;14766;51.380;13.762;2024-01-07T05:49:26;8.18;;;4.63;;
27265;SDS011;14766;51.380;13.762;2024-01-07T05:51:53;8.65;;;4.38;;
27265;SDS011;14766;51.380;13.762;2024-01-07T05:54:20;6.82;;;4.00;;
27265;SDS011;14766;51.380;13.762;2024-01-07T05:56:49;7.07;;;4.43;;
27265;SDS011;14766;51.380;13.762;2024-01-07T05:59:16;8.10;;;3.95;;
27265;SDS011;14766;51.380;13.762;2024-01-07T06:01:44;8.40;;;4.47;;
27265;SDS011;14766;51.380;13.762;2024-01-07T06:04:12;7.95;;;4.40;;
27265;SDS011;14766;51.380;13.762;2024-01-07T06:06:39;7.35;;;3.80;;
27265;SDS011;14766;51.380;13.762;2024-01-07T06:09:07;9.80;;;4.28;;
27265;SDS011;14766;51.380;13.762;2024-01-07T06:11:34;5.88;;;3.90;;
27265;SDS011;14766;51.380;13.762;2024-01-07T06:14:02;6.32;;;3.90;;
27265;SDS011;14766;51.380;13.762;2024-01-07T06:16:29;5.72;;;3.47;;
27265;SDS011;14766;51.380;13.762;2024-01-07T06:18:56;6.47;;;3.72;;
27265;SDS011;14766;51.380;13.762;2024-01-07T06:21:23;5.60;;;3.70;;
27265;SDS011;14766;51.380;13.762;2024-01-07T06:23:52;5.50;;;3.38;;
27265;SDS011;14766;51.380;13.762;2024-01-07T06:26:19;4.88;;;3.42;;
27265;SDS011;14766;51.380;13.762;2024-01-07T06:28:46;5.00;;;3.20;;
27265;SDS011;14766;51.380;13.762;2024-01-07T06:31:13;5.55;;;3.42;;
27265;SDS011;14766;51.380;13.762;2024-01-07T06:33:40;5.57;;;3.10;;
27265;SDS011;14766;51.380;13.762;2024-01-07T06:36:07;5.50;;;3.03;;
27265;SDS011;14766;51.380;13.762;2024-01-07T06:38:34;5.93;;;3.13;;
27265;SDS011;14766;51.380;13.762;2024-01-07T06:41:01;6.15;;;2.90;;
27265;SDS011;14766;51.380;13.762;2024-01-07T06:43:31;4.93;;;2.58;;
27265;SDS011;14766;51.380;13.762;2024-01-07T06:45:58;5.53;;;3.38;;
27265;SDS011;14766;51.380;13.762;2024-01-07T06:48:28;5.18;;;2.83;;
27265;SDS011;14766;51.380;13.762;2024-01-07T06:50:55;4.22;;;2.78;;
27265;SDS011;14766;51.380;13.762;2024-01-07T06:53:23;4.63;;;2.53;;
27265;SDS011;14766;51.380;13.762;2024-01-07T06:55:50;5.60;;;2.95;;
27265;SDS011;14766;51.380;13.762;2024-01-07T06:58:18;4.70;;;3.03;;
27265;SDS011;14766;51.380;13.762;2024-01-07T07:00:45;5.47;;;2.53;;
27265;SDS011;14766;51.380;13.762;2024-01-07T07:03:12;4.80;;;2.55;;
27265;SDS011;14766;51.380;13.762;2024-01-07T07:05:39;5.72;;;2.50;;
27265;SDS011;14766;51.380;13.762;2024-01-07T07:08:06;5.25;;;2.67;;
27265;SDS011;14766;51.380;13.762;2024-01-07T07:10:33;4.55;;;2.30;;
27265;SDS011;14766;51.380;13.762;2024-01-07T07:13:01;4.50;;;2.67;;
27265;SDS011;14766;51.380;13.762;2024-01-07T07:15:28;5.32;;;2.53;;
27265;SDS011;14766;51.380;13.762;2024-01-07T07:17:55;6.05;;;2.50;;
27265;SDS011;14766;51.380;13.762;2024-01-07T07:20:24;4.57;;;2.55;;
27265;SDS011;14766;51.380;13.762;2024-01-07T07:22:51;3.42;;;2.15;;
27265;SDS011;14766;51.380;13.762;2024-01-07T07:25:18;5.35;;;2.97;;
27265;SDS011;14766;51.380;13.762;2024-01-07T07:27:46;3.40;;;2.15;;
27265;SDS011;14766;51.380;13.762;2024-01-07T07:30:13;3.85;;;2.38;;
27265;SDS011;14766;51.380;13.762;2024-01-07T07:32:40;4.18;;;1.88;;
27265;SDS011;14766;51.380;13.762;2024-01-07T07:35:10;5.95;;;2.50;;
27265;SDS011;14766;51.380;13.762;2024-01-07T07:37:37;4.05;;;2.40;;
27265;SDS011;14766;51.380;13.762;2024-01-07T07:40:05;3.47;;;2.28;;
27265;SDS011;14766;51.380;13.762;2024-01-07T07:42:32;3.70;;;2.13;;
27265;SDS011;14766;51.380;13.762;2024-01-07T07:45:00;2.80;;;2.30;;
27265;SDS011;14766;51.380;13.762;2024-01-07T07:47:28;3.60;;;2.22;;
27265;SDS011;14766;51.380;13.762;2024-01-07T07:49:55;3.65;;;2.08;;
27265;SDS011;14766;51.380;13.762;2024-01-07T07:52:23;3.97;;;2.38;;
27265;SDS011;14766;51.380;13.762;2024-01-07T07:54:52;4.80;;;3.00;;
27265;SDS011;14766;51.380;13.762;2024-01-07T07:57:20;3.85;;;2.25;;
27265;SDS011;14766;51.380;13.762;2024-01-07T07:59:48;3.55;;;2.20;;
27265;SDS011;14766;51.380;13.762;2024-01-07T08:02:15;4.22;;;2.60;;
27265;SDS011;14766;51.380;13.762;2024-01-07T08:04:43;3.67;;;2.20;;
27265;SDS011;14766;51.380;13.762;2024-01-07T08:07:10;5.00;;;2.50;;
27265;SDS011;14766;51.380;13.762;2024-01-07T08:09:37;3.60;;;2.20;;
27265;SDS011;14766;51.380;13.762;2024-01-07T08:12:05;3.00;;;1.92;;
27265;SDS011;14766;51.380;13.762;2024-01-07T08:14:32;3.70;;;2.00;;
27265;SDS011;14766;51.380;13.762;2024-01-07T08:17:00;4.65;;;2.70;;
27265;SDS011;14766;51.380;13.762;2024-01-07T08:19:27;3.28;;;2.22;;
27265;SDS011;14766;51.380;13.762;2024-01-07T08:21:55;3.35;;;2.10;;
27265;SDS011;14766;51.380;13.762;2024-01-07T08:24:23;4.47;;;2.22;;
27265;SDS011;14766;51.380;13.762;2024-01-07T08:26:50;3.13;;;2.22;;
27265;SDS011;14766;51.380;13.762;2024-01-07T08:29:18;3.35;;;2.10;;
27265;SDS011;14766;51.380;13.762;2024-01-07T08:31:45;4.28;;;2.35;;
27265;SDS011;14766;51.380;13.762;2024-01-07T08:34:13;3.85;;;2.17;;
27265;SDS011;14766;51.380;13.762;2024-01-07T08:36:42;4.03;;;2.28;;
27265;SDS011;14766;51.380;13.762;2024-01-07T08:39:09;3.10;;;2.35;;
27265;SDS011;14766;51.380;13.762;2024-01-07T08:41:37;3.45;;;2.05;;
27265;SDS011;14766;51.380;13.762;2024-01-07T08:44:05;3.42;;;1.70;;
27265;SDS011;14766;51.380;13.762;2024-01-07T08:46:35;2.80;;;1.92;;
27265;SDS011;14766;51.380;13.762;2024-01-07T08:49:02;3.25;;;1.67;;
27265;SDS011;14766;51.380;13.762;2024-01-07T08:51:30;3.33;;;1.77;;
27265;SDS011;14766;51.380;13.762;2024-01-07T08:53:57;7.57;;;3.15;;
27265;SDS011;14766;51.380;13.762;2024-01-07T08:56:25;4.30;;;2.17;;
27265;SDS011;14766;51.380;13.762;2024-01-07T08:58:55;3.67;;;2.00;;
27265;SDS011;14766;51.380;13.762;2024-01-07T09:01:22;2.60;;;1.98;;
27265;SDS011;14766;51.380;13.762;2024-01-07T09:03:51;4.03;;;2.38;;
27265;SDS011;14766;51.380;13.762;2024-01-07T09:06:19;2.72;;;2.28;;
27265;SDS011;14766;51.380;13.762;2024-01-07T09:08:46;3.67;;;2.20;;
27265;SDS011;14766;51.380;13.762;2024-01-07T09:11:13;7.72;;;4.07;;
27265;SDS011;14766;51.380;13.762;2024-01-07T09:13:42;16.55;;;9.57;;
27265;SDS011;14766;51.380;13.762;2024-01-07T09:16:11;21.85;;;11.32;;
27265;SDS011;14766;51.380;13.762;2024-01-07T09:18:39;6.13;;;3.97;;
27265;SDS011;14766;51.380;13.762;2024-01-07T09:21:06;4.15;;;2.38;;
27265;SDS011;14766;51.380;13.762;2024-01-07T09:23:33;3.83;;;2.10;;
27265;SDS011;14766;51.380;13.762;2024-01-07T09:26:02;5.88;;;2.22;;
27265;SDS011;14766;51.380;13.762;2024-01-07T09:28:31;3.40;;;2.13;;
27265;SDS011;14766;51.380;13.762;2024-01-07T09:30:59;2.88;;;1.85;;
27265;SDS011;14766;51.380;13.762;2024-01-07T09:33:27;3.15;;;1.90;;
27265;SDS011;14766;51.380;13.762;2024-01-07T09:35:55;2.53;;;1.73;;
27265;SDS011;14766;51.380;13.762;2024-01-07T09:38:36;2.63;;;1.65;;
27265;SDS011;14766;51.380;13.762;2024-01-07T09:41:03;3.75;;;2.20;;
27265;SDS011;14766;51.380;13.762;2024-01-07T09:43:31;3.47;;;2.28;;
27265;SDS011;14766;51.380;13.762;2024-01-07T09:46:02;2.97;;;2.00;;
27265;SDS011;14766;51.380;13.762;2024-01-07T09:48:30;3.80;;;1.98;;
27265;SDS011;14766;51.380;13.762;2024-01-07T09:50:57;4.05;;;2.78;;
27265;SDS011;14766;51.380;13.762;2024-01-07T09:53:25;2.42;;;1.33;;
27265;SDS011;14766;51.380;13.762;2024-01-07T09:58:38;4.90;;;3.47;;
27265;SDS011;14766;51.380;13.762;2024-01-07T10:01:08;4.97;;;3.17;;
27265;SDS011;14766;51.380;13.762;2024-01-07T10:03:36;7.03;;;2.53;;
27265;SDS011;14766;51.380;13.762;2024-01-07T10:06:04;4.57;;;3.50;;
27265;SDS011;14766;51.380;13.762;2024-01-07T10:08:32;4.75;;;2.58;;
27265;SDS011;14766;51.380;13.762;2024-01-07T10:11:00;3.35;;;2.17;;
27265;SDS011;14766;51.380;13.762;2024-01-07T10:13:29;3.72;;;2.50;;
27265;SDS011;14766;51.380;13.762;2024-01-07T10:15:57;4.32;;;2.67;;
27265;SDS011;14766;51.380;13.762;2024-01-07T10:18:25;4.32;;;2.63;;
27265;SDS011;14766;51.380;13.762;2024-01-07T10:21:01;4.28;;;2.60;;
27265;SDS011;14766;51.380;13.762;2024-01-07T10:23:30;3.72;;;2.33;;
27265;SDS011;14766;51.380;13.762;2024-01-07T10:25:58;3.10;;;2.63;;
27265;SDS011;14766;51.380;13.762;2024-01-07T10:28:34;4.35;;;2.97;;
27265;SDS011;14766;51.380;13.762;2024-01-07T10:31:01;6.43;;;4.28;;
27265;SDS011;14766;51.380;13.762;2024-01-07T10:33:31;4.55;;;2.80;;
27265;SDS011;14766;51.380;13.762;2024-01-07T10:36:05;4.20;;;2.90;;
27265;SDS011;14766;51.380;13.762;2024-01-07T10:38:33;3.92;;;2.70;;
27265;SDS011;14766;51.380;13.762;2024-01-07T10:41:00;4.50;;;2.80;;
27265;SDS011;14766;51.380;13.762;2024-01-07T10:43:31;5.82;;;3.50;;
27265;SDS011;14766;51.380;13.762;2024-01-07T10:46:02;3.58;;;2.45;;
27265;SDS011;14766;51.380;13.762;2024-01-07T10:48:32;3.03;;;2.38;;
27265;SDS011;14766;51.380;13.762;2024-01-07T10:51:04;2.78;;;2.17;;
27265;SDS011;14766;51.380;13.762;2024-01-07T10:53:33;5.10;;;2.60;;
27265;SDS011;14766;51.380;13.762;2024-01-07T10:56:03;4.65;;;2.53;;
27265;SDS011;14766;51.380;13.762;2024-01-07T10:58:35;3.63;;;2.50;;
27265;SDS011;14766;51.380;13.762;2024-01-07T11:01:02;3.85;;;2.42;;
27265;SDS011;14766;51.380;13.762;2024-01-07T11:06:21;4.63;;;2.35;;
27265;SDS011;14766;51.380;13.762;2024-01-07T11:11:31;3.35;;;2.33;;
27265;SDS011;14766;51.380;13.762;2024-01-07T11:14:06;4.32;;;2.55;;
27265;SDS011;14766;51.380;13.762;2024-01-07T11:17:03;4.25;;;2.55;;
27265;SDS011;14766;51.380;13.762;2024-01-07T11:19:32;5.95;;;3.03;;
27265;SDS011;14766;51.380;13.762;2024-01-07T11:24:55;5.10;;;3.72;;
27265;SDS011;14766;51.380;13.762;2024-01-07T11:27:23;6.35;;;3.80;;
27265;SDS011;14766;51.380;13.762;2024-01-07T11:29:55;13.00;;;6.05;;
27265;SDS011;14766;51.380;13.762;2024-01-07T11:32:24;7.28;;;4.05;;
27265;SDS011;14766;51.380;13.762;2024-01-07T11:34:55;16.88;;;8.63;;
27265;SDS011;14766;51.380;13.762;2024-01-07T11:37:26;9.60;;;4.10;;
27265;SDS011;14766;51.380;13.762;2024-01-07T11:39:55;6.13;;;3.67;;
27265;SDS011;14766;51.380;13.762;2024-01-07T11:42:27;4.93;;;2.75;;
27265;SDS011;14766;51.380;13.762;2024-01-07T11:44:54;3.38;;;2.53;;
27265;SDS011;14766;51.380;13.762;2024-01-07T11:47:23;3.35;;;2.47;;
27265;SDS011;14766;51.380;13.762;2024-01-07T11:49:53;2.75;;;2.30;;
27265;SDS011;14766;51.380;13.762;2024-01-07T11:52:21;3.60;;;2.33;;
27265;SDS011;14766;51.380;13.762;2024-01-07T11:54:49;3.17;;;2.20;;
27265;SDS011;14766;51.380;13.762;2024-01-07T11:57:17;3.40;;;2.55;;
27265;SDS011;14766;51.380;13.762;2024-01-07T11:59:46;5.68;;;3.20;;
27265;SDS011;14766;51.380;13.762;2024-01-07T12:02:13;4.10;;;2.95;;
27265;SDS011;14766;51.380;13.762;2024-01-07T12:04:44;4.57;;;3.03;;
27265;SDS011;14766;51.380;13.762;2024-01-07T12:07:14;6.60;;;4.30;;
27265;SDS011;14766;51.380;13.762;2024-01-07T12:09:43;12.57;;;7.47;;
27265;SDS011;14766;51.380;13.762;2024-01-07T12:12:10;11.23;;;6.57;;
27265;SDS011;14766;51.380;13.762;2024-01-07T12:14:38;8.43;;;5.22;;
27265;SDS011;14766;51.380;13.762;2024-01-07T12:17:08;4.93;;;3.55;;
27265;SDS011;14766;51.380;13.762;2024-01-07T12:19:39;5.47;;;3.00;;
27265;SDS011;14766;51.380;13.762;2024-01-07T12:22:07;4.50;;;2.78;;
27265;SDS011;14766;51.380;13.762;2024-01-07T12:24:35;5.45;;;2.60;;
27265;SDS011;14766;51.380;13.762;2024-01-07T12:27:07;5.68;;;3.60;;
27265;SDS011;14766;51.380;13.762;2024-01-07T12:29:34;5.40;;;3.28;;
27265;SDS011;14766;51.380;13.762;2024-01-07T12:32:01;3.10;;;2.47;;
27265;SDS011;14766;51.380;13.762;2024-01-07T12:34:30;2.95;;;2.33;;
27265;SDS011;14766;51.380;13.762;2024-01-07T12:36:58;3.45;;;1.92;;
27265;SDS011;14766;51.380;13.762;2024-01-07T12:39:26;3.85;;;2.05;;
27265;SDS011;14766;51.380;13.762;2024-01-07T12:41:54;2.47;;;2.00;;
27265;SDS011;14766;51.380;13.762;2024-01-07T12:44:26;2.08;;;1.42;;
27265;SDS011;14766;51.380;13.762;2024-01-07T12:46:54;2.05;;;1.40;;
27265;SDS011;14766;51.380;13.762;2024-01-07T12:49:21;2.97;;;1.70;;
27265;SDS011;14766;51.380;13.762;2024-01-07T12:51:50;3.20;;;1.90;;
27265;SDS011;14766;51.380;13.762;2024-01-07T12:54:17;2.20;;;1.50;;
27265;SDS011;14766;51.380;13.762;2024-01-07T12:56:45;2.65;;;1.60;;
27265;SDS011;14766;51.380;13.762;2024-01-07T12:59:13;4.15;;;1.80;;
27265;SDS011;14766;51.380;13.762;2024-01-07T13:01:41;2.25;;;1.60;;
27265;SDS011;14766;51.380;13.762;2024-01-07T13:04:09;3.50;;;2.08;;
27265;SDS011;14766;51.380;13.762;2024-01-07T13:06:36;4.45;;;2.85;;
27265;SDS011;14766;51.380;13.762;2024-01-07T13:09:04;4.60;;;3.13;;
27265;SDS011;14766;51.380;13.762;2024-01-07T13:11:32;5.53;;;3.28;;
27265;SDS011;14766;51.380;13.762;2024-01-07T13:14:00;14.98;;;8.27;;
27265;SDS011;14766;51.380;13.762;2024-01-07T13:16:29;17.75;;;9.63;;
27265;SDS011;14766;51.380;13.762;2024-01-07T13:18:56;9.57;;;5.97;;
27265;SDS011;14766;51.380;13.762;2024-01-07T13:21:24;6.45;;;3.88;;
27265;SDS011;14766;51.380;13.762;2024-01-07T13:23:52;4.38;;;2.67;;
27265;SDS011;14766;51.380;13.762;2024-01-07T13:26:19;4.35;;;2.40;;
27265;SDS011;14766;51.380;13.762;2024-01-07T13:28:47;5.25;;;3.08;;
27265;SDS011;14766;51.380;13.762;2024-01-07T13:31:15;3.53;;;1.92;;
27265;SDS011;14766;51.380;13.762;2024-01-07T13:33:42;3.30;;;1.80;;
27265;SDS011;14766;51.380;13.762;2024-01-07T13:36:10;3.63;;;2.45;;
27265;SDS011;14766;51.380;13.762;2024-01-07T13:38:39;3.97;;;2.38;;
27265;SDS011;14766;51.380;13.762;2024-01-07T13:41:10;4.72;;;2.40;;
27265;SDS011;14766;51.380;13.762;2024-01-07T13:43:37;4.38;;;2.08;;
27265;SDS011;14766;51.380;13.762;2024-01-07T13:46:07;4.07;;;2.03;;
27265;SDS011;14766;51.380;13.762;2024-01-07T13:48:36;2.88;;;2.00;;
27265;SDS011;14766;51.380;13.762;2024-01-07T13:51:06;3.03;;;1.70;;
27265;SDS011;14766;51.380;13.762;2024-01-07T13:53:33;2.33;;;1.42;;
27265;SDS011;14766;51.380;13.762;2024-01-07T13:56:01;2.20;;;1.50;;
27265;SDS011;14766;51.380;13.762;2024-01-07T13:58:28;3.10;;;1.70;;
27265;SDS011;14766;51.380;13.762;2024-01-07T14:00:55;2.92;;;1.90;;
27265;SDS011;14766;51.380;13.762;2024-01-07T14:03:23;2.05;;;1.38;;
27265;SDS011;14766;51.380;13.762;2024-01-07T14:05:51;2.90;;;1.60;;
27265;SDS011;14766;51.380;13.762;2024-01-07T14:08:18;3.45;;;2.33;;
27265;SDS011;14766;51.380;13.762;2024-01-07T14:10:45;2.85;;;1.95;;
27265;SDS011;14766;51.380;13.762;2024-01-07T14:13:12;2.47;;;1.90;;
27265;SDS011;14766;51.380;13.762;2024-01-07T14:15:39;3.17;;;2.47;;
27265;SDS011;14766;51.380;13.762;2024-01-07T14:18:07;4.18;;;2.30;;
27265;SDS011;14766;51.380;13.762;2024-01-07T14:20:37;9.23;;;5.88;;
27265;SDS011;14766;51.380;13.762;2024-01-07T14:23:04;16.67;;;10.80;;
27265;SDS011;14766;51.380;13.762;2024-01-07T14:25:31;16.52;;;9.43;;
27265;SDS011;14766;51.380;13.762;2024-01-07T14:28:00;14.40;;;7.97;;
27265;SDS011;14766;51.380;13.762;2024-01-07T14:30:27;31.50;;;15.07;;
27265;SDS011;14766;51.380;13.762;2024-01-07T14:32:54;47.40;;;21.60;;
27265;SDS011;14766;51.380;13.762;2024-01-07T14:35:21;34.20;;;16.08;;
27265;SDS011;14766;51.380;13.762;2024-01-07T14:37:51;10.65;;;4.88;;
27265;SDS011;14766;51.380;13.762;2024-01-07T14:40:19;7.28;;;4.20;;
27265;SDS011;14766;51.380;13.762;2024-01-07T14:42:46;5.68;;;3.33;;
27265;SDS011;14766;51.380;13.762;2024-01-07T14:45:15;3.10;;;2.25;;